NEOK1: Neosho R at Neosho Rapids, KS

                                SHEF ID:       NEOK1     NEOSHO R AT NEOSHO RAPIDS, KS
STATION TYPE:

STAGE RIV-FLOW BAT-LOAD
ft cfs volt
Ccp-Rev Ccp-Rev Ccp-Rev
(America/Chicago)
05/01 00:00 9.93 5729 12.53
05/01 01:00 9.90 5705 12.51
05/01 02:00 9.88 5689 12.48
05/01 03:00 9.85 5665 12.46
05/01 04:00 9.82 5641 12.44
05/01 05:00 9.80 5625 12.40
05/01 06:00 9.77 5601 12.36
05/01 07:00 9.75 5585 12.32
05/01 08:00 9.72 5561 12.42
05/01 09:00 9.71 5553 13.37
05/01 10:00 9.69 5538 13.32
05/01 11:00 9.66 5514 13.23
05/01 12:00 9.64 5498 13.18
05/01 13:00 9.62 5482 13.16
05/01 14:00 9.60 5466 13.07
05/01 15:00 9.58 5451 12.94
05/01 16:00 9.56 5435 12.98
05/01 17:00 9.55 5427 12.89
05/01 18:00 9.53 5411 12.90
05/01 19:00 9.51 5395 12.83
05/01 20:00 9.50 5388 12.73
05/01 21:00 9.48 5372 12.63
05/01 22:00 9.46 5356 12.58
05/01 23:00 9.44 5340 12.54
Data processed at Sat 02May2026 04:36 GMT

NOTICE: If you are parsing this page

Please convert to using our Data API. Starting early 2026 we will be migrating to: https://water.usace.army.mil with modern pages rendered in JavaScript. When this migration completes you will no longer be able to scrape this page! CWMSDataAPI (CDA)

Timeseries IDs (TSIDs)

TSIDs used from left to right in the data table
NEOR.Stage.Inst.1Hour.0.Ccp-Rev
NEOR.Flow.Inst.1Hour.0.Ccp-Rev
NEOR.Volt-Battery Load.Inst.1Hour.0.Ccp-Rev

                            

All information presented herein is the property of the government of the United States of America and may be revised or deleted at any time without prior notice. Dissemination of this information without the expressed written consent of the Public Affairs Office, Tulsa District U.S. Army Corps of Engineers is strictly prohibited. These data are gathered electronically and, as presented, have NOT undergone any form of quality control. These data are NOT guaranteed to be valid or correct.